LFLU

Valence-Chabeuil Airport

Airport
ICAO code
LFLU
IATA Code
VAF
Summary
ICAO Region
EUR
ICAO Territory
Location

, Rhone-Alpes

Serving
Valence
Elevation
525 ft
Coordinates
44° 55' 18" N , 4° 58' 12" E
Metar
Observation
LFLU 271630Z AUTO 19010KT CAVOK 10/06 Q1020
Station
Valence-Chabeuil
Date/Time
2022-11-27 16:30:00
Wind direction
190°
Wind speed
10 kts
Lowest cloud amount
clouds and visibility OK
Temperature
10°C
Dew point
6°C
Humidity
76%
QNH
1020 hPa
Weather condition
n/a

Runways

Designator Length Width Surface Rops
1/19 2100 45 ASP No/No

Airport map

Aerial View

SKYbrary Partners:

Safety knowledge contributed by: